createdAt,value
2022-09-30T00:01:42.164Z,5.68
2022-09-30T00:04:14.861Z,8.68
2022-09-30T00:06:43.174Z,5.55
2022-09-30T00:09:13.138Z,5.00
2022-09-30T00:11:42.273Z,4.60
2022-09-30T00:14:16.872Z,4.05
2022-09-30T00:16:45.454Z,5.88
2022-09-30T00:19:14.533Z,6.55
2022-09-30T00:21:42.865Z,10.30
2022-09-30T00:24:11.001Z,10.40
2022-09-30T00:26:39.119Z,7.35
2022-09-30T00:29:07.422Z,3.60
2022-09-30T00:31:37.580Z,3.90
2022-09-30T00:34:11.327Z,4.25
2022-09-30T00:36:43.613Z,4.95
2022-09-30T00:39:14.818Z,5.00
2022-09-30T00:41:43.442Z,7.13
2022-09-30T00:44:50.928Z,5.60
2022-09-30T00:47:45.617Z,6.45
2022-09-30T00:50:20.134Z,5.68
2022-09-30T00:52:51.479Z,4.93
2022-09-30T00:55:28.463Z,6.60
2022-09-30T00:57:58.263Z,6.07
2022-09-30T01:00:26.440Z,5.80
2022-09-30T01:02:56.778Z,6.00
2022-09-30T01:05:27.479Z,9.90
2022-09-30T01:07:58.972Z,28.05
2022-09-30T01:10:27.149Z,9.27
2022-09-30T01:12:55.803Z,5.55
2022-09-30T01:15:34.318Z,6.75
2022-09-30T01:18:11.542Z,40.13
2022-09-30T01:21:12.785Z,12.65
2022-09-30T01:24:20.849Z,5.78
2022-09-30T01:27:06.090Z,6.68
2022-09-30T01:30:00.476Z,5.35
2022-09-30T01:32:50.260Z,5.25
2022-09-30T01:35:26.666Z,9.02
2022-09-30T01:38:05.200Z,6.85
2022-09-30T01:40:42.053Z,4.72
2022-09-30T01:43:18.219Z,4.75
2022-09-30T01:45:51.770Z,4.38
2022-09-30T01:48:27.805Z,4.15
2022-09-30T01:51:00.382Z,6.78
2022-09-30T01:53:38.426Z,6.63
2022-09-30T01:56:13.789Z,7.43
2022-09-30T01:58:47.569Z,9.00
2022-09-30T02:01:23.136Z,5.47
2022-09-30T02:03:57.328Z,5.55
2022-09-30T02:06:29.215Z,5.78
2022-09-30T02:09:01.123Z,4.43
2022-09-30T02:11:31.690Z,4.78
2022-09-30T02:14:06.144Z,4.30
2022-09-30T02:16:40.137Z,5.45
2022-09-30T02:19:18.504Z,5.35
2022-09-30T02:21:53.782Z,11.85
2022-09-30T02:24:25.288Z,17.88
2022-09-30T02:26:57.425Z,10.63
2022-09-30T02:29:30.319Z,19.77
2022-09-30T02:32:03.074Z,12.65
2022-09-30T02:34:37.038Z,21.10
2022-09-30T02:37:09.711Z,19.40
2022-09-30T02:39:44.831Z,18.17
2022-09-30T02:42:20.299Z,14.95
2022-09-30T02:44:50.719Z,15.38
2022-09-30T02:47:26.998Z,18.05
2022-09-30T02:50:03.379Z,17.75
2022-09-30T02:52:44.363Z,18.73
2022-09-30T02:55:20.045Z,14.63
2022-09-30T02:57:58.325Z,19.25
2022-09-30T03:00:27.047Z,29.30
2022-09-30T03:03:01.865Z,39.85
2022-09-30T03:05:31.562Z,20.15
2022-09-30T03:07:59.789Z,8.15
2022-09-30T03:10:30.757Z,6.25
2022-09-30T03:13:13.134Z,6.15
2022-09-30T03:15:52.719Z,4.07
2022-09-30T03:18:36.664Z,7.25
2022-09-30T03:21:15.232Z,5.03
2022-09-30T03:24:07.123Z,4.05
2022-09-30T03:26:42.927Z,7.30
2022-09-30T03:29:18.908Z,6.55
2022-09-30T03:31:58.636Z,4.78
2022-09-30T03:34:33.244Z,4.57
2022-09-30T03:37:10.189Z,4.13
2022-09-30T03:39:55.103Z,7.82
2022-09-30T03:42:27.567Z,8.93
2022-09-30T03:45:03.999Z,6.18
2022-09-30T03:47:35.359Z,5.50
2022-09-30T03:50:08.739Z,10.07
2022-09-30T03:52:39.164Z,7.03
2022-09-30T03:55:11.633Z,6.28
2022-09-30T03:57:40.137Z,6.43
2022-09-30T04:00:09.259Z,6.50
2022-09-30T04:02:37.952Z,6.07
2022-09-30T04:05:07.338Z,12.55
2022-09-30T04:07:37.195Z,31.70
2022-09-30T04:10:06.859Z,57.28
2022-09-30T04:12:35.019Z,33.88
2022-09-30T04:15:03.198Z,31.83
2022-09-30T04:17:31.571Z,51.55
2022-09-30T04:19:59.632Z,48.22
2022-09-30T04:22:27.735Z,37.72
2022-09-30T04:24:57.231Z,18.60
2022-09-30T04:27:25.385Z,31.73
2022-09-30T04:29:53.471Z,35.20
2022-09-30T04:32:23.457Z,49.80
2022-09-30T04:34:51.893Z,71.38
2022-09-30T04:37:20.011Z,23.67
2022-09-30T04:39:48.181Z,27.50
2022-09-30T04:42:18.393Z,16.70
2022-09-30T04:44:46.492Z,41.03
2022-09-30T04:47:15.596Z,25.27
2022-09-30T04:49:43.725Z,25.42
2022-09-30T04:52:11.906Z,45.00
2022-09-30T04:54:40.035Z,23.33
2022-09-30T04:57:08.159Z,24.42
2022-09-30T04:59:37.844Z,37.58
2022-09-30T05:02:06.032Z,26.45
2022-09-30T05:04:34.258Z,35.55
2022-09-30T05:07:03.768Z,37.95
2022-09-30T05:09:32.032Z,23.45
2022-09-30T05:12:02.683Z,15.65
2022-09-30T05:14:30.809Z,20.13
2022-09-30T05:17:00.952Z,10.73
2022-09-30T05:19:29.323Z,18.25
2022-09-30T05:21:57.467Z,42.70
2022-09-30T05:24:25.775Z,23.83
2022-09-30T05:26:53.884Z,38.50
2022-09-30T05:29:22.240Z,26.05
2022-09-30T05:31:50.462Z,24.15
2022-09-30T05:34:21.351Z,39.60
2022-09-30T05:36:49.755Z,17.58
2022-09-30T05:39:18.100Z,28.38
2022-09-30T05:41:47.571Z,17.33
2022-09-30T05:44:15.690Z,17.40
2022-09-30T05:46:44.601Z,22.67
2022-09-30T05:49:12.914Z,11.68
2022-09-30T05:51:42.787Z,12.35
2022-09-30T05:54:11.718Z,14.48
2022-09-30T05:56:42.831Z,22.27
2022-09-30T05:59:11.163Z,22.02
2022-09-30T06:01:39.365Z,23.38
2022-09-30T06:04:07.467Z,20.90
2022-09-30T06:06:35.665Z,24.33
2022-09-30T06:09:05.469Z,11.82
2022-09-30T06:11:35.029Z,15.23
2022-09-30T06:14:03.166Z,15.60
2022-09-30T06:16:32.101Z,19.38
2022-09-30T06:19:00.739Z,18.02
2022-09-30T06:21:29.353Z,43.15
2022-09-30T06:23:58.120Z,38.72
2022-09-30T06:26:27.947Z,30.45
2022-09-30T06:28:56.090Z,33.10
2022-09-30T06:31:24.335Z,9.07
2022-09-30T06:33:54.478Z,7.43
2022-09-30T06:36:22.554Z,11.95
2022-09-30T06:38:54.501Z,17.55
2022-09-30T06:41:24.522Z,27.33
2022-09-30T06:43:58.814Z,33.58
2022-09-30T06:46:31.831Z,13.57
2022-09-30T06:49:12.778Z,10.93
2022-09-30T06:51:42.208Z,13.25
2022-09-30T06:54:10.856Z,12.93
2022-09-30T06:56:39.119Z,13.68
2022-09-30T06:59:08.748Z,7.30
2022-09-30T07:01:37.281Z,6.47
2022-09-30T07:04:09.612Z,5.95
2022-09-30T07:06:38.943Z,9.75
2022-09-30T07:09:07.798Z,20.35
2022-09-30T07:11:36.706Z,18.45
2022-09-30T07:14:05.345Z,8.38
2022-09-30T07:16:35.421Z,19.98
2022-09-30T07:19:04.687Z,20.58
2022-09-30T07:21:32.823Z,8.15
2022-09-30T07:24:01.080Z,20.63
2022-09-30T07:26:30.319Z,9.25
2022-09-30T07:29:00.080Z,4.93
2022-09-30T07:31:32.884Z,9.82
2022-09-30T07:34:03.245Z,9.18
2022-09-30T07:36:33.455Z,4.82
2022-09-30T07:39:05.841Z,18.83
2022-09-30T07:41:36.579Z,10.27
2022-09-30T07:44:06.377Z,5.63
2022-09-30T07:46:39.105Z,6.85
2022-09-30T07:49:13.651Z,9.27
2022-09-30T07:51:45.428Z,6.80
2022-09-30T07:54:16.418Z,7.22
2022-09-30T07:57:08.707Z,4.38
2022-09-30T07:59:35.853Z,7.72
2022-09-30T08:02:04.827Z,8.77
2022-09-30T08:04:35.583Z,10.80
2022-09-30T08:07:05.480Z,3.83
2022-09-30T08:09:33.719Z,3.35
2022-09-30T08:12:03.757Z,4.03
2022-09-30T08:14:32.158Z,4.82
2022-09-30T08:17:00.658Z,7.22
2022-09-30T08:19:30.459Z,6.05
2022-09-30T08:22:00.228Z,6.68
2022-09-30T08:24:28.436Z,5.25
2022-09-30T08:26:57.320Z,6.05
2022-09-30T08:29:49.949Z,7.75
2022-09-30T08:32:13.649Z,4.85
2022-09-30T08:34:41.827Z,4.07
2022-09-30T08:37:11.376Z,4.43
2022-09-30T08:39:40.025Z,6.00
2022-09-30T08:42:41.459Z,4.53
2022-09-30T08:45:31.418Z,4.28
2022-09-30T08:48:10.162Z,4.10
2022-09-30T08:50:52.809Z,5.82
2022-09-30T08:53:27.743Z,4.60
2022-09-30T08:56:02.335Z,4.45
2022-09-30T08:58:33.157Z,4.88
2022-09-30T09:01:08.496Z,5.13
2022-09-30T09:03:36.749Z,4.47
2022-09-30T09:06:21.630Z,5.90
2022-09-30T09:09:03.897Z,4.82
2022-09-30T09:11:49.729Z,4.25
2022-09-30T09:14:31.437Z,4.80
2022-09-30T09:17:15.269Z,4.25
2022-09-30T09:19:48.696Z,5.15
2022-09-30T09:22:19.108Z,8.00
2022-09-30T09:24:53.566Z,4.22
2022-09-30T09:27:26.774Z,3.70
2022-09-30T09:32:30.651Z,3.40
2022-09-30T09:35:03.072Z,4.55
2022-09-30T09:37:57.431Z,3.75
2022-09-30T09:40:35.956Z,5.00
2022-09-30T09:43:13.265Z,3.70
2022-09-30T09:45:51.034Z,3.42
2022-09-30T09:48:19.157Z,4.28
2022-09-30T09:50:57.086Z,5.32
2022-09-30T09:53:48.799Z,3.38
2022-09-30T09:56:20.578Z,4.05
2022-09-30T09:59:10.832Z,3.75
2022-09-30T10:01:41.337Z,3.85
2022-09-30T10:04:19.226Z,4.82
2022-09-30T10:06:51.519Z,6.55
2022-09-30T10:09:29.240Z,5.13
2022-09-30T10:12:30.077Z,3.15
2022-09-30T10:15:01.667Z,2.72
2022-09-30T10:17:33.033Z,3.20
2022-09-30T10:20:07.079Z,3.75
2022-09-30T10:22:36.744Z,4.60
2022-09-30T10:25:28.131Z,4.82
2022-09-30T10:28:00.019Z,4.45
2022-09-30T10:30:45.938Z,8.23
2022-09-30T10:33:21.876Z,3.72
2022-09-30T10:36:05.266Z,4.90
2022-09-30T10:38:34.807Z,6.03
2022-09-30T10:41:04.829Z,5.25
2022-09-30T10:43:40.658Z,2.88
2022-09-30T10:46:25.693Z,6.68
2022-09-30T10:48:56.137Z,3.72
2022-09-30T10:51:36.282Z,5.68
2022-09-30T10:54:05.737Z,3.63
2022-09-30T10:56:44.291Z,3.70
2022-09-30T10:59:37.759Z,6.57
2022-09-30T11:05:04.184Z,5.10
2022-09-30T11:07:38.130Z,3.88
2022-09-30T11:10:14.871Z,4.18
2022-09-30T11:12:48.704Z,4.90
2022-09-30T11:15:25.245Z,5.25
2022-09-30T11:17:59.826Z,4.68
2022-09-30T11:20:33.316Z,4.25
2022-09-30T11:23:07.909Z,3.65
2022-09-30T11:25:44.372Z,3.58
2022-09-30T11:28:37.048Z,5.18
2022-09-30T11:31:15.510Z,5.32
2022-09-30T11:34:05.021Z,4.43
2022-09-30T11:36:42.984Z,4.90
2022-09-30T11:39:29.086Z,5.63
2022-09-30T11:42:04.419Z,5.68
2022-09-30T11:44:35.711Z,3.17
2022-09-30T11:47:29.424Z,2.92
2022-09-30T11:50:34.871Z,3.22
2022-09-30T11:53:16.139Z,4.22
2022-09-30T11:56:03.405Z,2.95
2022-09-30T11:58:42.338Z,2.10
2022-09-30T12:01:23.391Z,3.05
2022-09-30T12:04:05.343Z,4.25
2022-09-30T12:06:36.912Z,3.58
2022-09-30T12:09:15.366Z,4.82
2022-09-30T12:11:50.798Z,4.57
2022-09-30T12:14:26.410Z,4.82
2022-09-30T12:16:57.796Z,5.82
2022-09-30T12:19:34.021Z,4.63
2022-09-30T12:22:08.805Z,3.60
2022-09-30T12:24:39.498Z,2.30
2022-09-30T12:27:16.847Z,3.20
2022-09-30T12:30:13.339Z,4.47
2022-09-30T12:33:14.231Z,7.00
2022-09-30T12:36:08.411Z,3.50
2022-09-30T12:39:01.118Z,4.75
2022-09-30T12:41:45.435Z,3.15
2022-09-30T12:44:51.382Z,4.85
2022-09-30T12:47:38.139Z,3.15
2022-09-30T12:50:10.114Z,3.42
2022-09-30T12:52:39.672Z,4.00
2022-09-30T12:55:23.611Z,3.03
2022-09-30T12:57:53.171Z,2.40
2022-09-30T13:00:23.299Z,3.45
2022-09-30T13:02:57.841Z,3.40
2022-09-30T13:05:51.875Z,3.63
2022-09-30T13:08:47.938Z,3.58
2022-09-30T13:11:38.294Z,4.78
2022-09-30T13:14:34.427Z,4.68
2022-09-30T13:17:26.537Z,3.15
2022-09-30T13:19:57.426Z,3.53
2022-09-30T13:22:56.439Z,2.88
2022-09-30T13:25:26.061Z,4.05
2022-09-30T13:28:10.710Z,3.15
2022-09-30T13:30:42.576Z,2.38
2022-09-30T13:33:43.831Z,3.22
2022-09-30T13:36:28.489Z,2.90
2022-09-30T13:39:26.649Z,5.30
2022-09-30T13:42:13.373Z,2.85
2022-09-30T13:45:00.677Z,2.88
2022-09-30T13:47:34.212Z,2.28
2022-09-30T13:50:13.351Z,2.90
2022-09-30T13:52:43.015Z,2.90
2022-09-30T13:55:19.673Z,4.13
2022-09-30T13:58:07.118Z,3.53
2022-09-30T14:00:49.988Z,3.92
2022-09-30T14:03:41.103Z,2.97
2022-09-30T14:06:20.373Z,2.95
2022-09-30T14:09:16.187Z,2.92
2022-09-30T14:12:12.367Z,5.75
2022-09-30T14:15:11.168Z,3.85
2022-09-30T14:17:56.859Z,3.00
2022-09-30T14:20:38.511Z,1.85
2022-09-30T14:23:14.907Z,2.85
2022-09-30T14:25:52.272Z,3.47
2022-09-30T14:28:27.864Z,4.22
2022-09-30T14:31:13.652Z,3.72
2022-09-30T14:33:43.802Z,3.42
2022-09-30T14:36:15.771Z,2.28
2022-09-30T14:38:47.056Z,5.07
2022-09-30T14:41:20.812Z,2.17
2022-09-30T14:43:52.986Z,4.10
2022-09-30T14:46:31.060Z,3.42
2022-09-30T14:49:04.515Z,3.03
2022-09-30T14:51:38.214Z,2.28
2022-09-30T14:54:06.469Z,2.70
2022-09-30T14:56:36.775Z,3.42
2022-09-30T14:59:18.713Z,1.70
2022-09-30T15:01:50.268Z,3.55
2022-09-30T15:04:21.660Z,3.38
2022-09-30T15:06:52.871Z,1.40
2022-09-30T15:09:25.015Z,2.65
2022-09-30T15:11:53.245Z,4.33
2022-09-30T15:14:23.680Z,2.67
2022-09-30T15:16:54.886Z,2.42
2022-09-30T15:19:25.243Z,1.88
2022-09-30T15:21:55.818Z,2.13
2022-09-30T15:24:27.314Z,1.40
2022-09-30T15:26:57.119Z,1.75
2022-09-30T15:29:25.484Z,1.42
2022-09-30T15:32:01.124Z,2.33
2022-09-30T15:34:36.859Z,2.63
2022-09-30T15:37:07.429Z,1.48
2022-09-30T15:39:58.043Z,2.45
2022-09-30T15:42:37.580Z,1.00
2022-09-30T15:45:25.088Z,0.95
2022-09-30T15:47:59.154Z,3.75
2022-09-30T15:50:38.383Z,1.00
2022-09-30T15:53:07.481Z,1.85
2022-09-30T15:55:43.174Z,1.52
2022-09-30T15:58:33.712Z,2.00
2022-09-30T16:01:16.191Z,1.60
2022-09-30T16:03:54.279Z,3.47
2022-09-30T16:06:28.931Z,0.75
2022-09-30T16:09:01.469Z,1.65
2022-09-30T16:11:32.621Z,1.00
2022-09-30T16:14:03.089Z,1.35
2022-09-30T16:16:34.324Z,1.98
2022-09-30T16:19:05.399Z,1.77
2022-09-30T16:21:45.945Z,2.15
2022-09-30T16:24:45.922Z,1.40
2022-09-30T16:27:29.184Z,3.28
2022-09-30T16:29:58.201Z,3.28
2022-09-30T16:32:28.392Z,4.32
2022-09-30T16:34:58.555Z,3.97
2022-09-30T16:37:27.003Z,4.38
2022-09-30T16:39:57.636Z,1.38
2022-09-30T16:42:25.749Z,2.53
2022-09-30T16:44:57.173Z,2.17
2022-09-30T16:47:25.988Z,2.92
2022-09-30T16:49:54.110Z,1.40
2022-09-30T16:52:24.800Z,1.77
2022-09-30T16:54:52.917Z,1.40
2022-09-30T16:57:21.202Z,1.33
2022-09-30T16:59:49.369Z,2.38
2022-09-30T17:02:17.536Z,1.63
2022-09-30T17:04:46.852Z,2.88
2022-09-30T17:07:15.519Z,2.33
2022-09-30T17:09:45.617Z,2.53
2022-09-30T17:12:15.446Z,2.28
2022-09-30T17:14:44.107Z,2.17
2022-09-30T17:17:13.860Z,2.42
2022-09-30T17:19:42.624Z,6.22
2022-09-30T17:22:10.787Z,4.45
2022-09-30T17:24:38.939Z,4.97
2022-09-30T17:27:08.548Z,3.53
2022-09-30T17:29:41.767Z,6.95
2022-09-30T17:32:10.516Z,6.22
2022-09-30T17:34:39.046Z,11.23
2022-09-30T17:39:35.381Z,11.57
2022-09-30T17:42:20.890Z,11.95
2022-09-30T17:44:51.241Z,4.70
2022-09-30T17:47:19.383Z,9.57
2022-09-30T17:49:47.748Z,7.88
2022-09-30T17:52:16.881Z,10.10
2022-09-30T17:54:49.824Z,19.15
2022-09-30T17:57:20.456Z,16.35
2022-09-30T17:59:49.980Z,35.03
2022-09-30T18:02:18.526Z,18.73
2022-09-30T18:04:47.483Z,11.13
2022-09-30T18:07:15.622Z,8.88
2022-09-30T18:09:43.740Z,7.28
2022-09-30T18:12:12.259Z,5.22
2022-09-30T18:14:40.347Z,3.05
2022-09-30T18:17:11.010Z,6.30
2022-09-30T18:19:39.107Z,4.75
2022-09-30T18:22:07.233Z,5.63
2022-09-30T18:24:52.518Z,6.82
2022-09-30T18:27:22.764Z,5.18
2022-09-30T18:29:50.919Z,5.75
2022-09-30T18:32:20.525Z,9.68
2022-09-30T18:34:49.057Z,8.57
2022-09-30T18:37:17.132Z,13.77
2022-09-30T18:39:45.223Z,23.48
2022-09-30T18:42:13.398Z,9.82
2022-09-30T18:44:41.724Z,9.82
2022-09-30T18:47:09.804Z,8.23
2022-09-30T18:49:39.356Z,10.23
2022-09-30T18:52:08.598Z,9.95
2022-09-30T18:54:36.948Z,8.40
2022-09-30T18:57:05.204Z,12.95
2022-09-30T18:59:33.340Z,8.70
2022-09-30T19:02:02.943Z,6.82
2022-09-30T19:04:31.174Z,7.30
2022-09-30T19:07:00.726Z,6.25
2022-09-30T19:09:28.937Z,12.90
2022-09-30T19:11:57.129Z,11.10
2022-09-30T19:14:25.286Z,8.15
2022-09-30T19:16:53.745Z,14.70
2022-09-30T19:19:23.239Z,9.13
2022-09-30T19:21:51.439Z,5.55
2022-09-30T19:24:27.371Z,4.95
2022-09-30T19:26:55.747Z,5.47
2022-09-30T19:29:25.015Z,3.78
2022-09-30T19:31:53.220Z,3.35
2022-09-30T19:34:31.024Z,4.53
2022-09-30T19:37:00.517Z,10.88
2022-09-30T19:39:42.786Z,5.28
2022-09-30T19:42:18.157Z,4.25
2022-09-30T19:44:47.369Z,4.13
2022-09-30T19:47:15.608Z,3.97
2022-09-30T19:49:44.023Z,5.05
2022-09-30T19:52:20.700Z,4.95
2022-09-30T19:54:53.094Z,4.88
2022-09-30T19:57:23.145Z,5.60
2022-09-30T19:59:52.202Z,4.53
2022-09-30T20:02:21.572Z,5.72
2022-09-30T20:04:51.107Z,3.67
2022-09-30T20:07:19.291Z,4.70
2022-09-30T20:09:47.808Z,5.45
2022-09-30T20:12:17.517Z,6.93
2022-09-30T20:15:03.213Z,5.57
2022-09-30T20:17:31.357Z,5.18
2022-09-30T20:20:16.708Z,3.85
2022-09-30T20:22:45.111Z,3.58
2022-09-30T20:25:13.897Z,3.38
2022-09-30T20:27:51.111Z,4.40
2022-09-30T20:30:20.490Z,4.60
2022-09-30T20:32:48.787Z,4.05
2022-09-30T20:35:17.374Z,5.30
2022-09-30T20:37:45.567Z,7.88
2022-09-30T20:40:13.771Z,4.90
2022-09-30T20:42:43.618Z,4.82
2022-09-30T20:45:13.438Z,3.03
2022-09-30T20:47:47.543Z,5.63
2022-09-30T20:50:34.885Z,5.57
2022-09-30T20:53:08.011Z,3.83
2022-09-30T20:55:39.674Z,5.50
2022-09-30T20:58:10.151Z,3.25
2022-09-30T21:00:40.894Z,40.30
2022-09-30T21:03:11.730Z,15.18
2022-09-30T21:05:40.029Z,10.85
2022-09-30T21:08:08.433Z,7.57
2022-09-30T21:10:38.642Z,11.45
2022-09-30T21:13:12.293Z,11.95
2022-09-30T21:15:40.944Z,6.07
2022-09-30T21:18:09.789Z,8.20
2022-09-30T21:20:38.317Z,4.32
2022-09-30T21:23:06.422Z,3.28
2022-09-30T21:25:34.586Z,3.60
2022-09-30T21:28:04.612Z,5.03
2022-09-30T21:30:34.411Z,3.10
2022-09-30T21:33:02.498Z,4.97
2022-09-30T21:35:30.619Z,4.43
2022-09-30T21:37:58.712Z,4.80
2022-09-30T21:40:28.312Z,5.40
2022-09-30T21:42:56.389Z,8.43
2022-09-30T21:45:25.268Z,4.85
2022-09-30T21:48:01.860Z,5.47
2022-09-30T21:50:32.064Z,5.10
2022-09-30T21:53:00.405Z,4.95
2022-09-30T21:55:29.207Z,6.03
2022-09-30T21:57:57.310Z,5.30
2022-09-30T22:00:25.426Z,8.65
2022-09-30T22:02:54.947Z,6.15
2022-09-30T22:05:23.115Z,4.80
2022-09-30T22:07:51.202Z,6.22
2022-09-30T22:10:19.318Z,6.07
2022-09-30T22:12:48.090Z,9.15
2022-09-30T22:15:16.314Z,5.75
2022-09-30T22:17:44.468Z,6.30
2022-09-30T22:20:14.044Z,6.90
2022-09-30T22:22:42.148Z,6.28
2022-09-30T22:25:10.625Z,8.40
2022-09-30T22:27:38.760Z,7.40
2022-09-30T22:30:08.213Z,7.45
2022-09-30T22:32:36.478Z,8.48
2022-09-30T22:35:22.381Z,8.25
2022-09-30T22:38:09.483Z,8.88
2022-09-30T22:40:37.790Z,10.20
2022-09-30T22:43:05.920Z,7.90
2022-09-30T22:45:36.121Z,11.00
2022-09-30T22:48:04.672Z,9.48
2022-09-30T22:50:36.178Z,8.30
2022-09-30T22:53:05.689Z,9.63
2022-09-30T22:55:34.984Z,9.15
2022-09-30T22:58:03.215Z,9.98
2022-09-30T23:00:31.499Z,7.45
2022-09-30T23:02:59.635Z,11.73
2022-09-30T23:05:27.862Z,7.55
2022-09-30T23:07:56.082Z,7.28
2022-09-30T23:10:25.755Z,8.70
2022-09-30T23:12:53.876Z,9.30
2022-09-30T23:15:22.467Z,8.18
2022-09-30T23:17:50.602Z,10.63
2022-09-30T23:20:18.922Z,9.85
2022-09-30T23:22:47.272Z,7.40
2022-09-30T23:25:15.463Z,10.75
2022-09-30T23:27:48.881Z,8.75
2022-09-30T23:30:17.443Z,10.10
2022-09-30T23:32:45.581Z,10.27
2022-09-30T23:35:16.611Z,9.55
2022-09-30T23:37:44.721Z,8.70
2022-09-30T23:40:13.148Z,7.90
2022-09-30T23:42:41.285Z,8.35
2022-09-30T23:45:12.388Z,11.95
2022-09-30T23:47:40.487Z,10.05
2022-09-30T23:50:10.336Z,8.30
2022-09-30T23:52:38.423Z,8.18
2022-09-30T23:55:07.437Z,7.85
2022-09-30T23:57:35.895Z,10.18
